Summerville, GA (30747)

8:58 PM EDT on July 01, 2015 (GMT -0400)
South LaFayette | | Change Station
CLOSE
Current Station
Personal Weather Station
Location: Trion, GA
Elevation: 876 ft
Nearby Weather Stations

Elev 876 ft 34.60 °N, 85.25 °W | Updated 4 minutes ago

Partly Cloudy
Partly Cloudy
67.1 °F
Feels Like 67.1 °F
N
0.0
Wind Variable Wind from South

Today
High -- | Low -- °F
--% Chance of Precip.
Yesterday
High -- | Low -- °F
Precip. -- in
6:32 AM 8:57 PM
Full, 100% visible
Pressure 30.03 in
Visibility 8.0 miles
Clouds Few 12000 ft
Dew Point 67 °F
Humidity 99%
Rainfall 0.54 in
Snow Depth Not available.
UV 0 out of 12
Pollen 2.20 out of 12
Air Quality Not available.
Flu Activity Not available.
METAR KRMG 020053Z AUTO 20005KT 8SM FEW120 21/20 A3003 RMK AO2 RAB2359E15 SLPNO P0000 T02060200

More Conditions Fewer Conditions

Pressure 30.03 in
Visibility 8.0 miles
Clouds Few 12000 ft
Dew Point 67 °F
Humidity 99%
Rainfall 0.54 in
Snow Depth Not available.
UV 0 out of 12
Pollen 2.20 out of 12
Air Quality Not available.
Flu Activity Not available.
METAR KRMG 020053Z AUTO 20005KT 8SM FEW120 21/20 A3003 RMK AO2 RAB2359E15 SLPNO P0000 T02060200

More Conditions Fewer Conditions

10-Day Weather Forecast

×

Almanac

Astronomy

Jul. 01, 2015 Rise Set
Actual Time
Civil Twilight
Nautical Twilight
Astronomical Twilight
Moon
Length of Visible Light
Length of Day
Tomorrow will be .
, % of the Moon is Illuminated

Today's Extremes

State Highs State Lows

Community

WunderPhotos

Upload Photos

1,834,355 photos uploaded!

WunderBlogs® & News

Nearby

Air Quality

  Air Quality AQ Index Pollutant
Not available.

Snow Depth

Station Depth Elevation

Earthquake Activity

City Distance Mag. Time & Date
Minimum magnitude displayed is 2.5.

Coastal Water Temperatures

Place Temperature

Stations

Nearby Weather Stations

Station Location Temp. Windchill Dew Point Humidity Wind Precip. Elev Updated Type